sensor_id;sensor_type;location;lat;lon;timestamp;pressure;altitude;pressure_sealevel;temperature
76895;BMP280;65855;42.030;13.078;2023-03-31T00:00:25;94266.41;;;2.25
76895;BMP280;65855;42.030;13.078;2023-03-31T00:02:50;94267.72;;;2.45
76895;BMP280;65855;42.030;13.078;2023-03-31T00:05:18;94272.09;;;2.32
76895;BMP280;65855;42.030;13.078;2023-03-31T00:07:46;94263.84;;;2.20
76895;BMP280;65855;42.030;13.078;2023-03-31T00:10:13;94254.34;;;2.28
76895;BMP280;65855;42.030;13.078;2023-03-31T00:12:39;94246.03;;;2.34
76895;BMP280;65855;42.030;13.078;2023-03-31T00:15:05;94237.28;;;2.32
76895;BMP280;65855;42.030;13.078;2023-03-31T00:17:31;94235.50;;;2.21
76895;BMP280;65855;42.030;13.078;2023-03-31T00:19:57;94219.25;;;2.47
76895;BMP280;65855;42.030;13.078;2023-03-31T00:22:25;94220.13;;;2.53
76895;BMP280;65855;42.030;13.078;2023-03-31T00:24:54;94197.66;;;2.19
76895;BMP280;65855;42.030;13.078;2023-03-31T00:27:19;94205.34;;;2.80
76895;BMP280;65855;42.030;13.078;2023-03-31T00:29:45;94199.50;;;2.97
76895;BMP280;65855;42.030;13.078;2023-03-31T00:32:11;94190.84;;;3.11
76895;BMP280;65855;42.030;13.078;2023-03-31T00:34:38;94176.44;;;3.13
76895;BMP280;65855;42.030;13.078;2023-03-31T00:37:04;94158.53;;;3.38
76895;BMP280;65855;42.030;13.078;2023-03-31T00:39:30;94145.75;;;3.35
76895;BMP280;65855;42.030;13.078;2023-03-31T00:42:01;94148.44;;;3.45
76895;BMP280;65855;42.030;13.078;2023-03-31T00:44:28;94146.97;;;3.60
76895;BMP280;65855;42.030;13.078;2023-03-31T00:47:02;94134.84;;;3.25
76895;BMP280;65855;42.030;13.078;2023-03-31T00:49:35;94139.53;;;2.65
76895;BMP280;65855;42.030;13.078;2023-03-31T00:54:35;94142.31;;;2.35
76895;BMP280;65855;42.030;13.078;2023-03-31T00:57:03;94125.91;;;2.45
76895;BMP280;65855;42.030;13.078;2023-03-31T00:59:36;94118.97;;;2.47
76895;BMP280;65855;42.030;13.078;2023-03-31T01:02:03;94123.72;;;2.26
76895;BMP280;65855;42.030;13.078;2023-03-31T01:04:32;94114.91;;;2.01
76895;BMP280;65855;42.030;13.078;2023-03-31T01:07:12;94113.19;;;2.24
76895;BMP280;65855;42.030;13.078;2023-03-31T01:09:43;94115.00;;;1.94
76895;BMP280;65855;42.030;13.078;2023-03-31T01:12:12;94117.84;;;2.09
76895;BMP280;65855;42.030;13.078;2023-03-31T01:14:39;94116.50;;;1.95
76895;BMP280;65855;42.030;13.078;2023-03-31T01:17:05;94116.50;;;1.95
76895;BMP280;65855;42.030;13.078;2023-03-31T01:22:51;94106.03;;;2.05
76895;BMP280;65855;42.030;13.078;2023-03-31T01:33:55;94107.84;;;2.38
76895;BMP280;65855;42.030;13.078;2023-03-31T01:42:31;94111.03;;;1.76
76895;BMP280;65855;42.030;13.078;2023-03-31T01:45:20;94110.03;;;2.06
76895;BMP280;65855;42.030;13.078;2023-03-31T01:47:55;94110.31;;;2.27
76895;BMP280;65855;42.030;13.078;2023-03-31T01:50:30;94102.09;;;2.49
76895;BMP280;65855;42.030;13.078;2023-03-31T01:53:08;94092.44;;;2.86
76895;BMP280;65855;42.030;13.078;2023-03-31T01:55:41;94085.16;;;3.07
76895;BMP280;65855;42.030;13.078;2023-03-31T01:58:12;94075.00;;;2.97
76895;BMP280;65855;42.030;13.078;2023-03-31T02:00:46;94069.84;;;3.15
76895;BMP280;65855;42.030;13.078;2023-03-31T02:03:27;94068.03;;;3.22
76895;BMP280;65855;42.030;13.078;2023-03-31T02:05:56;94057.69;;;2.91
76895;BMP280;65855;42.030;13.078;2023-03-31T02:08:33;94053.59;;;2.74
76895;BMP280;65855;42.030;13.078;2023-03-31T02:11:01;94060.88;;;2.53
76895;BMP280;65855;42.030;13.078;2023-03-31T02:13:28;94061.22;;;2.34
76895;BMP280;65855;42.030;13.078;2023-03-31T02:15:57;94042.38;;;2.38
76895;BMP280;65855;42.030;13.078;2023-03-31T02:18:26;94032.97;;;2.39
76895;BMP280;65855;42.030;13.078;2023-03-31T02:20:53;94021.28;;;2.29
76895;BMP280;65855;42.030;13.078;2023-03-31T02:23:23;94017.59;;;2.31
76895;BMP280;65855;42.030;13.078;2023-03-31T02:26:09;94023.88;;;2.22
76895;BMP280;65855;42.030;13.078;2023-03-31T02:28:36;94017.06;;;2.52
76895;BMP280;65855;42.030;13.078;2023-03-31T02:33:30;94017.56;;;1.64
76895;BMP280;65855;42.030;13.078;2023-03-31T02:35:57;94024.81;;;1.76
76895;BMP280;65855;42.030;13.078;2023-03-31T02:38:23;94024.84;;;1.88
76895;BMP280;65855;42.030;13.078;2023-03-31T02:40:49;94024.50;;;1.84
76895;BMP280;65855;42.030;13.078;2023-03-31T02:43:15;94018.59;;;1.96
76895;BMP280;65855;42.030;13.078;2023-03-31T02:45:44;94018.56;;;1.74
76895;BMP280;65855;42.030;13.078;2023-03-31T02:48:24;94016.41;;;1.89
76895;BMP280;65855;42.030;13.078;2023-03-31T03:12:05;93971.81;;;2.66
76895;BMP280;65855;42.030;13.078;2023-03-31T03:14:43;93969.50;;;2.76
76895;BMP280;65855;42.030;13.078;2023-03-31T03:17:24;93974.41;;;2.71
76895;BMP280;65855;42.030;13.078;2023-03-31T03:19:55;93958.59;;;2.77
76895;BMP280;65855;42.030;13.078;2023-03-31T03:22:22;93949.66;;;2.53
76895;BMP280;65855;42.030;13.078;2023-03-31T03:24:47;93941.53;;;2.08
76895;BMP280;65855;42.030;13.078;2023-03-31T03:27:13;93941.53;;;1.96
76895;BMP280;65855;42.030;13.078;2023-03-31T03:29:38;93942.56;;;2.23
76895;BMP280;65855;42.030;13.078;2023-03-31T03:32:04;93937.34;;;2.47
76895;BMP280;65855;42.030;13.078;2023-03-31T03:34:29;93946.16;;;1.82
76895;BMP280;65855;42.030;13.078;2023-03-31T03:36:55;93935.47;;;1.81
76895;BMP280;65855;42.030;13.078;2023-03-31T03:39:20;93940.22;;;2.16
76895;BMP280;65855;42.030;13.078;2023-03-31T03:41:45;93935.72;;;2.52
76895;BMP280;65855;42.030;13.078;2023-03-31T03:44:11;93929.25;;;2.79
76895;BMP280;65855;42.030;13.078;2023-03-31T03:46:36;93938.91;;;3.03
76895;BMP280;65855;42.030;13.078;2023-03-31T03:49:02;93942.97;;;2.42
76895;BMP280;65855;42.030;13.078;2023-03-31T03:51:27;93931.00;;;2.39
76895;BMP280;65855;42.030;13.078;2023-03-31T03:53:52;93925.91;;;2.35
76895;BMP280;65855;42.030;13.078;2023-03-31T03:56:18;93928.22;;;2.02
76895;BMP280;65855;42.030;13.078;2023-03-31T03:58:43;93924.22;;;2.01
76895;BMP280;65855;42.030;13.078;2023-03-31T04:01:09;93926.19;;;1.88
76895;BMP280;65855;42.030;13.078;2023-03-31T04:03:34;93925.69;;;2.25
76895;BMP280;65855;42.030;13.078;2023-03-31T04:06:00;93931.16;;;2.49
76895;BMP280;65855;42.030;13.078;2023-03-31T04:08:25;93937.34;;;2.47
76895;BMP280;65855;42.030;13.078;2023-03-31T04:10:51;93936.19;;;2.38
76895;BMP280;65855;42.030;13.078;2023-03-31T04:13:18;93943.56;;;2.22
76895;BMP280;65855;42.030;13.078;2023-03-31T04:15:44;93956.75;;;2.34
76895;BMP280;65855;42.030;13.078;2023-03-31T04:18:11;93957.38;;;2.40
76895;BMP280;65855;42.030;13.078;2023-03-31T04:20:44;93960.66;;;2.68
76895;BMP280;65855;42.030;13.078;2023-03-31T04:23:09;93959.03;;;2.74
76895;BMP280;65855;42.030;13.078;2023-03-31T04:25:35;93952.97;;;2.70
76895;BMP280;65855;42.030;13.078;2023-03-31T04:28:03;93956.19;;;2.82
76895;BMP280;65855;42.030;13.078;2023-03-31T04:30:31;93960.91;;;2.94
76895;BMP280;65855;42.030;13.078;2023-03-31T04:33:01;93953.63;;;2.77
76895;BMP280;65855;42.030;13.078;2023-03-31T04:35:29;93940.50;;;2.42
76895;BMP280;65855;42.030;13.078;2023-03-31T04:38:07;93939.91;;;2.13
76895;BMP280;65855;42.030;13.078;2023-03-31T04:40:33;93951.53;;;2.35
76895;BMP280;65855;42.030;13.078;2023-03-31T04:43:00;93953.44;;;2.56
76895;BMP280;65855;42.030;13.078;2023-03-31T04:45:26;93953.00;;;2.97
76895;BMP280;65855;42.030;13.078;2023-03-31T04:47:51;93948.38;;;2.89
76895;BMP280;65855;42.030;13.078;2023-03-31T04:50:17;93950.66;;;2.91
76895;BMP280;65855;42.030;13.078;2023-03-31T04:52:42;93958.50;;;2.99
76895;BMP280;65855;42.030;13.078;2023-03-31T04:55:08;93960.84;;;2.39
76895;BMP280;65855;42.030;13.078;2023-03-31T04:57:34;93956.59;;;2.51
76895;BMP280;65855;42.030;13.078;2023-03-31T04:59:59;93949.94;;;2.68
76895;BMP280;65855;42.030;13.078;2023-03-31T05:02:24;93950.88;;;2.51
76895;BMP280;65855;42.030;13.078;2023-03-31T05:04:50;93945.78;;;2.46
76895;BMP280;65855;42.030;13.078;2023-03-31T05:07:19;93943.81;;;2.59
76895;BMP280;65855;42.030;13.078;2023-03-31T05:09:44;93946.19;;;2.65
76895;BMP280;65855;42.030;13.078;2023-03-31T05:12:11;93948.81;;;2.87
76895;BMP280;65855;42.030;13.078;2023-03-31T05:14:36;93961.09;;;3.04
76895;BMP280;65855;42.030;13.078;2023-03-31T05:17:02;93951.75;;;3.11
76895;BMP280;65855;42.030;13.078;2023-03-31T05:19:27;93955.66;;;3.07
76895;BMP280;65855;42.030;13.078;2023-03-31T05:21:52;93959.22;;;3.11
76895;BMP280;65855;42.030;13.078;2023-03-31T05:24:18;93954.66;;;3.08
76895;BMP280;65855;42.030;13.078;2023-03-31T05:26:43;93943.44;;;3.06
76895;BMP280;65855;42.030;13.078;2023-03-31T05:29:19;93933.53;;;3.22
76895;BMP280;65855;42.030;13.078;2023-03-31T05:31:45;93936.47;;;3.35
76895;BMP280;65855;42.030;13.078;2023-03-31T05:34:11;93939.72;;;3.52
76895;BMP280;65855;42.030;13.078;2023-03-31T05:36:37;93941.16;;;3.64
76895;BMP280;65855;42.030;13.078;2023-03-31T05:39:04;93944.56;;;3.74
76895;BMP280;65855;42.030;13.078;2023-03-31T05:41:29;93944.25;;;3.38
76895;BMP280;65855;42.030;13.078;2023-03-31T05:43:55;93948.47;;;3.22
76895;BMP280;65855;42.030;13.078;2023-03-31T05:46:20;93947.06;;;3.58
76895;BMP280;65855;42.030;13.078;2023-03-31T05:48:46;93944.56;;;3.58
76895;BMP280;65855;42.030;13.078;2023-03-31T05:51:11;93943.44;;;3.82
76895;BMP280;65855;42.030;13.078;2023-03-31T05:53:36;93935.72;;;3.99
76895;BMP280;65855;42.030;13.078;2023-03-31T05:56:04;93937.88;;;4.12
76895;BMP280;65855;42.030;13.078;2023-03-31T05:58:33;93935.59;;;4.10
76895;BMP280;65855;42.030;13.078;2023-03-31T06:03:26;93913.13;;;4.90
76895;BMP280;65855;42.030;13.078;2023-03-31T06:05:52;93913.00;;;5.06
76895;BMP280;65855;42.030;13.078;2023-03-31T06:08:19;93905.47;;;5.27
76895;BMP280;65855;42.030;13.078;2023-03-31T06:10:45;93899.41;;;5.49
76895;BMP280;65855;42.030;13.078;2023-03-31T06:13:10;93894.22;;;5.91
76895;BMP280;65855;42.030;13.078;2023-03-31T06:15:36;93891.13;;;6.15
76895;BMP280;65855;42.030;13.078;2023-03-31T06:18:01;93885.03;;;6.52
76895;BMP280;65855;42.030;13.078;2023-03-31T06:20:26;93886.69;;;7.07
76895;BMP280;65855;42.030;13.078;2023-03-31T06:22:52;93885.72;;;7.42
76895;BMP280;65855;42.030;13.078;2023-03-31T06:25:17;93900.28;;;7.50
76895;BMP280;65855;42.030;13.078;2023-03-31T06:27:43;93889.22;;;8.00
76895;BMP280;65855;42.030;13.078;2023-03-31T06:30:08;93889.09;;;8.54
76895;BMP280;65855;42.030;13.078;2023-03-31T06:32:34;93891.09;;;8.57
76895;BMP280;65855;42.030;13.078;2023-03-31T06:34:59;93879.31;;;8.52
76895;BMP280;65855;42.030;13.078;2023-03-31T06:37:25;93880.53;;;8.60
76895;BMP280;65855;42.030;13.078;2023-03-31T06:39:50;93878.16;;;8.83
76895;BMP280;65855;42.030;13.078;2023-03-31T06:42:16;93880.59;;;9.02
76895;BMP280;65855;42.030;13.078;2023-03-31T06:44:41;93885.91;;;8.96
76895;BMP280;65855;42.030;13.078;2023-03-31T06:47:06;93881.69;;;8.82
76895;BMP280;65855;42.030;13.078;2023-03-31T06:49:32;93873.66;;;9.93
76895;BMP280;65855;42.030;13.078;2023-03-31T06:51:57;93853.47;;;10.44
76895;BMP280;65855;42.030;13.078;2023-03-31T06:54:23;93840.09;;;11.03
76895;BMP280;65855;42.030;13.078;2023-03-31T06:56:48;93839.31;;;11.88
76895;BMP280;65855;42.030;13.078;2023-03-31T06:59:13;93827.94;;;12.70
76895;BMP280;65855;42.030;13.078;2023-03-31T07:01:39;93825.53;;;13.34
76895;BMP280;65855;42.030;13.078;2023-03-31T07:04:06;93835.31;;;13.27
76895;BMP280;65855;42.030;13.078;2023-03-31T07:06:32;93839.84;;;14.03
76895;BMP280;65855;42.030;13.078;2023-03-31T07:08:58;93836.69;;;14.28
76895;BMP280;65855;42.030;13.078;2023-03-31T07:11:23;93842.84;;;14.05
76895;BMP280;65855;42.030;13.078;2023-03-31T07:13:49;93853.38;;;13.13
76895;BMP280;65855;42.030;13.078;2023-03-31T07:16:14;93858.47;;;12.86
76895;BMP280;65855;42.030;13.078;2023-03-31T07:18:40;93862.75;;;12.86
76895;BMP280;65855;42.030;13.078;2023-03-31T07:21:07;93868.31;;;12.35
76895;BMP280;65855;42.030;13.078;2023-03-31T07:23:33;93864.75;;;12.62
76895;BMP280;65855;42.030;13.078;2023-03-31T07:25:59;93860.44;;;12.23
76895;BMP280;65855;42.030;13.078;2023-03-31T07:28:27;93862.97;;;12.23
76895;BMP280;65855;42.030;13.078;2023-03-31T07:30:53;93866.44;;;10.97
76895;BMP280;65855;42.030;13.078;2023-03-31T07:33:19;93871.47;;;11.82
76895;BMP280;65855;42.030;13.078;2023-03-31T07:35:44;93872.03;;;11.79
76895;BMP280;65855;42.030;13.078;2023-03-31T07:38:10;93865.81;;;11.90
76895;BMP280;65855;42.030;13.078;2023-03-31T07:40:36;93859.13;;;12.39
76895;BMP280;65855;42.030;13.078;2023-03-31T07:43:02;93852.66;;;12.59
76895;BMP280;65855;42.030;13.078;2023-03-31T07:45:28;93847.38;;;12.96
76895;BMP280;65855;42.030;13.078;2023-03-31T07:47:53;93843.28;;;12.20
76895;BMP280;65855;42.030;13.078;2023-03-31T07:50:20;93833.88;;;11.50
76895;BMP280;65855;42.030;13.078;2023-03-31T07:52:46;93823.63;;;12.17
76895;BMP280;65855;42.030;13.078;2023-03-31T07:55:12;93821.72;;;12.89
76895;BMP280;65855;42.030;13.078;2023-03-31T07:57:37;93825.22;;;13.36
76895;BMP280;65855;42.030;13.078;2023-03-31T08:00:04;93823.84;;;13.08
76895;BMP280;65855;42.030;13.078;2023-03-31T08:02:33;93814.84;;;13.02
76895;BMP280;65855;42.030;13.078;2023-03-31T08:04:59;93821.09;;;13.61
76895;BMP280;65855;42.030;13.078;2023-03-31T08:07:25;93803.75;;;14.06
76895;BMP280;65855;42.030;13.078;2023-03-31T08:09:55;93807.28;;;13.45
76895;BMP280;65855;42.030;13.078;2023-03-31T08:12:20;93805.56;;;14.06
76895;BMP280;65855;42.030;13.078;2023-03-31T08:14:46;93804.31;;;14.33
76895;BMP280;65855;42.030;13.078;2023-03-31T08:17:11;93797.06;;;14.57
76895;BMP280;65855;42.030;13.078;2023-03-31T08:19:36;93790.84;;;14.88
76895;BMP280;65855;42.030;13.078;2023-03-31T08:22:02;93792.22;;;15.02
76895;BMP280;65855;42.030;13.078;2023-03-31T08:24:28;93790.28;;;15.07
76895;BMP280;65855;42.030;13.078;2023-03-31T08:26:53;93798.97;;;15.06
76895;BMP280;65855;42.030;13.078;2023-03-31T08:29:19;93791.78;;;15.08
76895;BMP280;65855;42.030;13.078;2023-03-31T08:31:44;93798.63;;;15.49
76895;BMP280;65855;42.030;13.078;2023-03-31T08:34:09;93806.44;;;15.19
76895;BMP280;65855;42.030;13.078;2023-03-31T08:36:35;93784.91;;;15.17
76895;BMP280;65855;42.030;13.078;2023-03-31T08:39:01;93784.69;;;14.55
76895;BMP280;65855;42.030;13.078;2023-03-31T08:42:01;93778.69;;;14.51
76895;BMP280;65855;42.030;13.078;2023-03-31T08:47:21;93780.25;;;14.94
76895;BMP280;65855;42.030;13.078;2023-03-31T08:49:51;93771.47;;;15.08
76895;BMP280;65855;42.030;13.078;2023-03-31T08:52:22;93766.88;;;14.39
76895;BMP280;65855;42.030;13.078;2023-03-31T08:54:52;93768.44;;;14.89
76895;BMP280;65855;42.030;13.078;2023-03-31T08:57:21;93764.56;;;15.42
76895;BMP280;65855;42.030;13.078;2023-03-31T08:59:48;93754.41;;;15.95
76895;BMP280;65855;42.030;13.078;2023-03-31T09:02:33;93756.06;;;16.36
76895;BMP280;65855;42.030;13.078;2023-03-31T09:05:06;93747.09;;;16.31
76895;BMP280;65855;42.030;13.078;2023-03-31T09:18:38;93737.63;;;17.83
76895;BMP280;65855;42.030;13.078;2023-03-31T09:21:12;93731.50;;;18.20
76895;BMP280;65855;42.030;13.078;2023-03-31T09:23:53;93730.44;;;18.56
76895;BMP280;65855;42.030;13.078;2023-03-31T09:29:06;93721.47;;;17.79
76895;BMP280;65855;42.030;13.078;2023-03-31T09:31:37;93720.94;;;17.86
76895;BMP280;65855;42.030;13.078;2023-03-31T09:34:12;93715.16;;;17.97
76895;BMP280;65855;42.030;13.078;2023-03-31T09:36:38;93713.69;;;16.40
76895;BMP280;65855;42.030;13.078;2023-03-31T09:39:04;93703.38;;;16.00
76895;BMP280;65855;42.030;13.078;2023-03-31T09:41:30;93704.81;;;16.66
76895;BMP280;65855;42.030;13.078;2023-03-31T09:43:55;93715.75;;;15.03
76895;BMP280;65855;42.030;13.078;2023-03-31T09:49:09;93693.75;;;17.34
76895;BMP280;65855;42.030;13.078;2023-03-31T09:51:36;93689.03;;;17.68
76895;BMP280;65855;42.030;13.078;2023-03-31T09:54:15;93695.94;;;17.68
76895;BMP280;65855;42.030;13.078;2023-03-31T09:56:49;93690.13;;;16.43
76895;BMP280;65855;42.030;13.078;2023-03-31T09:59:37;93688.22;;;15.75
76895;BMP280;65855;42.030;13.078;2023-03-31T10:02:31;93710.16;;;15.51
76895;BMP280;65855;42.030;13.078;2023-03-31T10:04:58;93706.91;;;15.79
76895;BMP280;65855;42.030;13.078;2023-03-31T10:07:24;93695.56;;;14.65
76895;BMP280;65855;42.030;13.078;2023-03-31T10:09:52;93685.75;;;15.59
76895;BMP280;65855;42.030;13.078;2023-03-31T10:12:20;93682.41;;;14.46
76895;BMP280;65855;42.030;13.078;2023-03-31T10:14:51;93678.25;;;15.00
76895;BMP280;65855;42.030;13.078;2023-03-31T10:17:21;93677.28;;;15.46
76895;BMP280;65855;42.030;13.078;2023-03-31T10:19:57;93674.28;;;15.44
76895;BMP280;65855;42.030;13.078;2023-03-31T10:24:50;93670.28;;;15.35
76895;BMP280;65855;42.030;13.078;2023-03-31T10:27:24;93674.66;;;15.18
76895;BMP280;65855;42.030;13.078;2023-03-31T10:29:52;93678.84;;;14.64
76895;BMP280;65855;42.030;13.078;2023-03-31T10:32:28;93688.09;;;13.89
76895;BMP280;65855;42.030;13.078;2023-03-31T10:34:56;93687.31;;;14.26
76895;BMP280;65855;42.030;13.078;2023-03-31T10:37:24;93689.84;;;14.18
76895;BMP280;65855;42.030;13.078;2023-03-31T10:40:04;93670.13;;;13.98
76895;BMP280;65855;42.030;13.078;2023-03-31T10:42:37;93655.13;;;14.35
76895;BMP280;65855;42.030;13.078;2023-03-31T10:45:23;93649.75;;;14.45
76895;BMP280;65855;42.030;13.078;2023-03-31T10:47:53;93618.44;;;15.28
76895;BMP280;65855;42.030;13.078;2023-03-31T10:50:18;93633.56;;;15.24
76895;BMP280;65855;42.030;13.078;2023-03-31T10:52:46;93598.09;;;16.41
76895;BMP280;65855;42.030;13.078;2023-03-31T10:55:13;93590.28;;;17.10
76895;BMP280;65855;42.030;13.078;2023-03-31T10:57:54;93592.22;;;16.01
76895;BMP280;65855;42.030;13.078;2023-03-31T11:00:25;93578.53;;;15.65
76895;BMP280;65855;42.030;13.078;2023-03-31T11:05:51;93550.09;;;15.43
76895;BMP280;65855;42.030;13.078;2023-03-31T11:11:30;93540.88;;;15.30
76895;BMP280;65855;42.030;13.078;2023-03-31T11:14:09;93516.75;;;16.13
76895;BMP280;65855;42.030;13.078;2023-03-31T11:25:18;93529.13;;;15.74
76895;BMP280;65855;42.030;13.078;2023-03-31T11:28:18;93544.53;;;15.49
76895;BMP280;65855;42.030;13.078;2023-03-31T11:31:11;93575.72;;;14.60
76895;BMP280;65855;42.030;13.078;2023-03-31T11:33:49;93592.59;;;14.14
76895;BMP280;65855;42.030;13.078;2023-03-31T11:37:03;93578.25;;;13.85
76895;BMP280;65855;42.030;13.078;2023-03-31T11:42:25;93543.31;;;14.65
76895;BMP280;65855;42.030;13.078;2023-03-31T11:45:01;93544.66;;;14.79
76895;BMP280;65855;42.030;13.078;2023-03-31T11:47:31;93540.94;;;15.50
76895;BMP280;65855;42.030;13.078;2023-03-31T11:50:03;93534.91;;;15.63
76895;BMP280;65855;42.030;13.078;2023-03-31T11:52:38;93523.50;;;16.61
76895;BMP280;65855;42.030;13.078;2023-03-31T11:55:12;93526.53;;;16.03
76895;BMP280;65855;42.030;13.078;2023-03-31T12:00:32;93500.34;;;16.86
76895;BMP280;65855;42.030;13.078;2023-03-31T12:05:59;93493.91;;;16.25
76895;BMP280;65855;42.030;13.078;2023-03-31T12:14:07;93485.91;;;16.35
76895;BMP280;65855;42.030;13.078;2023-03-31T12:16:37;93462.31;;;16.69
76895;BMP280;65855;42.030;13.078;2023-03-31T12:22:07;93460.88;;;17.51
76895;BMP280;65855;42.030;13.078;2023-03-31T12:24:35;93453.75;;;17.44
76895;BMP280;65855;42.030;13.078;2023-03-31T12:29:38;93430.75;;;18.06
76895;BMP280;65855;42.030;13.078;2023-03-31T12:32:29;93434.47;;;17.20
76895;BMP280;65855;42.030;13.078;2023-03-31T12:35:06;93415.16;;;18.38
76895;BMP280;65855;42.030;13.078;2023-03-31T12:40:32;93394.00;;;17.69
76895;BMP280;65855;42.030;13.078;2023-03-31T12:51:12;93392.81;;;16.34
76895;BMP280;65855;42.030;13.078;2023-03-31T12:54:09;93400.66;;;16.52
76895;BMP280;65855;42.030;13.078;2023-03-31T12:59:32;93409.00;;;16.17
76895;BMP280;65855;42.030;13.078;2023-03-31T13:04:34;93392.19;;;15.73
76895;BMP280;65855;42.030;13.078;2023-03-31T13:07:01;93397.03;;;16.30
76895;BMP280;65855;42.030;13.078;2023-03-31T13:11:56;93382.41;;;16.38
76895;BMP280;65855;42.030;13.078;2023-03-31T13:14:34;93387.25;;;15.88
76895;BMP280;65855;42.030;13.078;2023-03-31T13:17:28;93398.75;;;15.54
76895;BMP280;65855;42.030;13.078;2023-03-31T13:19:56;93389.50;;;15.38
76895;BMP280;65855;42.030;13.078;2023-03-31T13:22:35;93374.25;;;15.38
76895;BMP280;65855;42.030;13.078;2023-03-31T13:27:55;93377.81;;;15.37
76895;BMP280;65855;42.030;13.078;2023-03-31T13:31:06;93395.66;;;14.71
76895;BMP280;65855;42.030;13.078;2023-03-31T14:08:49;93339.13;;;13.81
76895;BMP280;65855;42.030;13.078;2023-03-31T14:14:12;93327.06;;;13.86
76895;BMP280;65855;42.030;13.078;2023-03-31T14:16:47;93314.38;;;14.03
76895;BMP280;65855;42.030;13.078;2023-03-31T14:25:04;93304.31;;;14.15
76895;BMP280;65855;42.030;13.078;2023-03-31T14:27:57;93304.59;;;13.68
76895;BMP280;65855;42.030;13.078;2023-03-31T14:36:01;93302.47;;;13.87
76895;BMP280;65855;42.030;13.078;2023-03-31T14:38:29;93316.47;;;13.84
76895;BMP280;65855;42.030;13.078;2023-03-31T14:40:56;93300.13;;;13.73
76895;BMP280;65855;42.030;13.078;2023-03-31T14:43:33;93314.41;;;13.78
76895;BMP280;65855;42.030;13.078;2023-03-31T14:46:06;93325.13;;;13.75
76895;BMP280;65855;42.030;13.078;2023-03-31T14:48:43;93326.06;;;13.62
76895;BMP280;65855;42.030;13.078;2023-03-31T14:51:11;93345.75;;;13.65
76895;BMP280;65855;42.030;13.078;2023-03-31T14:53:38;93324.56;;;13.78
76895;BMP280;65855;42.030;13.078;2023-03-31T14:56:05;93319.66;;;13.65
76895;BMP280;65855;42.030;13.078;2023-03-31T14:58:35;93300.78;;;13.37
76895;BMP280;65855;42.030;13.078;2023-03-31T15:01:03;93291.47;;;13.83
76895;BMP280;65855;42.030;13.078;2023-03-31T15:03:32;93292.97;;;13.67
76895;BMP280;65855;42.030;13.078;2023-03-31T15:05:59;93299.28;;;13.53
76895;BMP280;65855;42.030;13.078;2023-03-31T15:08:26;93290.31;;;13.64
76895;BMP280;65855;42.030;13.078;2023-03-31T15:11:02;93285.41;;;13.59
76895;BMP280;65855;42.030;13.078;2023-03-31T15:13:37;93278.28;;;13.44
76895;BMP280;65855;42.030;13.078;2023-03-31T15:16:29;93267.31;;;13.77
76895;BMP280;65855;42.030;13.078;2023-03-31T15:18:55;93261.53;;;14.13
76895;BMP280;65855;42.030;13.078;2023-03-31T15:21:24;93261.53;;;14.13
76895;BMP280;65855;42.030;13.078;2023-03-31T15:23:51;93260.16;;;13.79
76895;BMP280;65855;42.030;13.078;2023-03-31T15:26:21;93257.56;;;14.04
76895;BMP280;65855;42.030;13.078;2023-03-31T15:28:52;93248.00;;;14.01
76895;BMP280;65855;42.030;13.078;2023-03-31T15:31:19;93238.47;;;14.35
76895;BMP280;65855;42.030;13.078;2023-03-31T15:33:45;93243.72;;;14.50
76895;BMP280;65855;42.030;13.078;2023-03-31T15:36:12;93249.16;;;14.12
76895;BMP280;65855;42.030;13.078;2023-03-31T15:38:37;93252.41;;;13.84
76895;BMP280;65855;42.030;13.078;2023-03-31T15:41:10;93241.84;;;13.73
76895;BMP280;65855;42.030;13.078;2023-03-31T15:43:48;93246.72;;;13.87
76895;BMP280;65855;42.030;13.078;2023-03-31T15:46:25;93252.81;;;13.94
76895;BMP280;65855;42.030;13.078;2023-03-31T15:49:20;93239.34;;;13.65
76895;BMP280;65855;42.030;13.078;2023-03-31T15:51:46;93236.16;;;13.85
76895;BMP280;65855;42.030;13.078;2023-03-31T15:56:58;93221.84;;;13.80
76895;BMP280;65855;42.030;13.078;2023-03-31T15:59:25;93228.47;;;13.65
76895;BMP280;65855;42.030;13.078;2023-03-31T16:01:53;93210.94;;;13.51
76895;BMP280;65855;42.030;13.078;2023-03-31T16:04:19;93212.84;;;13.54
76895;BMP280;65855;42.030;13.078;2023-03-31T16:07:20;93221.50;;;13.53
76895;BMP280;65855;42.030;13.078;2023-03-31T16:14:51;93231.41;;;13.21
76895;BMP280;65855;42.030;13.078;2023-03-31T16:17:32;93231.88;;;13.07
76895;BMP280;65855;42.030;13.078;2023-03-31T16:20:03;93210.31;;;12.76
76895;BMP280;65855;42.030;13.078;2023-03-31T16:22:40;93215.53;;;12.71
76895;BMP280;65855;42.030;13.078;2023-03-31T16:25:16;93221.94;;;12.77
76895;BMP280;65855;42.030;13.078;2023-03-31T16:27:45;93213.91;;;12.75
76895;BMP280;65855;42.030;13.078;2023-03-31T16:30:20;93210.16;;;12.64
76895;BMP280;65855;42.030;13.078;2023-03-31T16:35:49;93187.38;;;12.64
76895;BMP280;65855;42.030;13.078;2023-03-31T16:38:19;93186.97;;;12.54
76895;BMP280;65855;42.030;13.078;2023-03-31T16:40:47;93193.78;;;12.37
76895;BMP280;65855;42.030;13.078;2023-03-31T16:43:15;93199.28;;;12.22
76895;BMP280;65855;42.030;13.078;2023-03-31T16:45:50;93197.63;;;12.26
76895;BMP280;65855;42.030;13.078;2023-03-31T16:48:17;93192.28;;;12.19
76895;BMP280;65855;42.030;13.078;2023-03-31T16:50:44;93199.97;;;12.06
76895;BMP280;65855;42.030;13.078;2023-03-31T16:53:12;93184.97;;;12.09
76895;BMP280;65855;42.030;13.078;2023-03-31T16:55:37;93181.81;;;11.96
76895;BMP280;65855;42.030;13.078;2023-03-31T16:58:03;93188.06;;;11.90
76895;BMP280;65855;42.030;13.078;2023-03-31T17:00:32;93173.19;;;11.88
76895;BMP280;65855;42.030;13.078;2023-03-31T17:03:00;93168.88;;;11.89
76895;BMP280;65855;42.030;13.078;2023-03-31T17:05:26;93149.56;;;11.93
76895;BMP280;65855;42.030;13.078;2023-03-31T17:07:52;93146.25;;;11.76
76895;BMP280;65855;42.030;13.078;2023-03-31T17:10:19;93134.81;;;11.70
76895;BMP280;65855;42.030;13.078;2023-03-31T17:12:44;93137.34;;;11.70
76895;BMP280;65855;42.030;13.078;2023-03-31T17:15:10;93134.69;;;11.83
76895;BMP280;65855;42.030;13.078;2023-03-31T17:17:36;93137.69;;;11.85
76895;BMP280;65855;42.030;13.078;2023-03-31T17:20:03;93141.88;;;11.98